createdAt,value
2022-09-09T00:00:58.312Z,99073.56
2022-09-09T00:03:52.405Z,99055.94
2022-09-09T00:06:47.958Z,99069.09
2022-09-09T00:09:46.049Z,99056.50
2022-09-09T00:12:41.694Z,99043.59
2022-09-09T00:15:38.756Z,99040.78
2022-09-09T00:18:47.339Z,99055.56
2022-09-09T00:21:38.165Z,99050.28
2022-09-09T00:24:36.294Z,99052.16
2022-09-09T00:27:35.010Z,99050.22
2022-09-09T00:30:26.097Z,99051.09
2022-09-09T00:33:16.991Z,99039.75
2022-09-09T00:36:14.737Z,99044.47
2022-09-09T00:39:04.300Z,99055.50
2022-09-09T00:42:15.349Z,99041.25
2022-09-09T00:45:25.941Z,99045.97
2022-09-09T00:48:14.475Z,99045.16
2022-09-09T00:51:12.434Z,99043.03
2022-09-09T00:54:28.635Z,99037.63
2022-09-09T00:57:29.303Z,99038.63
2022-09-09T01:00:24.882Z,99045.25
2022-09-09T01:03:29.547Z,99056.25
2022-09-09T01:06:32.017Z,99044.97
2022-09-09T01:09:26.802Z,99054.13
2022-09-09T01:12:19.235Z,99049.66
2022-09-09T01:15:15.371Z,99050.72
2022-09-09T01:18:13.565Z,99050.72
2022-09-09T01:21:15.982Z,99038.63
2022-09-09T01:24:23.931Z,99037.34
2022-09-09T01:27:38.855Z,99050.00
2022-09-09T01:30:27.527Z,99038.72
2022-09-09T01:33:19.882Z,99049.81
2022-09-09T01:36:12.886Z,99036.66
2022-09-09T01:39:07.910Z,99032.44
2022-09-09T01:41:58.383Z,99048.53
2022-09-09T01:44:47.872Z,99043.28
2022-09-09T01:47:36.900Z,99049.88
2022-09-09T01:50:36.155Z,99045.09
2022-09-09T01:53:25.406Z,99043.75
2022-09-09T01:56:28.156Z,99058.41
2022-09-09T01:59:42.144Z,99035.56
2022-09-09T02:02:38.470Z,99030.09
2022-09-09T02:05:40.657Z,99044.03
2022-09-09T02:08:44.761Z,99046.66
2022-09-09T02:11:33.910Z,99049.59
2022-09-09T02:14:33.398Z,99040.97
2022-09-09T02:17:27.914Z,99051.72
2022-09-09T02:20:25.350Z,99042.75
2022-09-09T02:23:20.365Z,99039.34
2022-09-09T02:26:14.422Z,99035.06
2022-09-09T02:29:05.885Z,99049.00
2022-09-09T02:31:56.214Z,99042.91
2022-09-09T02:34:52.902Z,99038.19
2022-09-09T02:37:47.122Z,99040.28
2022-09-09T02:40:36.327Z,99047.59
2022-09-09T02:43:26.148Z,99043.41
2022-09-09T02:46:34.841Z,99038.63
2022-09-09T02:49:30.997Z,99033.44
2022-09-09T02:52:25.325Z,99037.53
2022-09-09T02:55:23.796Z,99045.16
2022-09-09T02:58:18.027Z,99045.44
2022-09-09T03:01:13.853Z,99043.03
2022-09-09T03:04:03.107Z,99041.25
2022-09-09T03:06:51.559Z,99041.78
2022-09-09T03:09:41.900Z,99050.72
2022-09-09T03:12:31.552Z,99046.53
2022-09-09T03:15:20.210Z,99040.69
2022-09-09T03:18:08.324Z,99027.25
2022-09-09T03:20:56.479Z,99025.59
2022-09-09T03:23:45.983Z,99027.38
2022-09-09T03:26:34.018Z,99020.03
2022-09-09T03:29:23.777Z,99029.16
2022-09-09T03:32:18.597Z,99024.16
2022-09-09T03:35:07.723Z,99037.34
2022-09-09T03:37:56.109Z,99034.13
2022-09-09T03:40:52.425Z,99036.78
2022-09-09T03:43:40.631Z,99040.97
2022-09-09T03:46:29.939Z,99033.63
2022-09-09T03:49:17.840Z,99032.25
2022-09-09T03:52:06.073Z,99034.63
2022-09-09T03:54:54.380Z,99025.16
2022-09-09T03:57:42.806Z,99025.38
2022-09-09T04:00:32.241Z,99036.97
2022-09-09T04:03:25.829Z,99031.41
2022-09-09T04:06:16.477Z,99027.22
2022-09-09T04:09:07.499Z,99030.88
2022-09-09T04:11:56.512Z,99048.75
2022-09-09T04:14:44.686Z,99041.41
2022-09-09T04:17:33.970Z,99038.28
2022-09-09T04:20:23.202Z,99045.66
2022-09-09T04:23:11.122Z,99041.53
2022-09-09T04:26:13.514Z,99050.50
2022-09-09T04:29:05.944Z,99047.38
2022-09-09T04:31:54.360Z,99037.41
2022-09-09T04:34:42.911Z,99040.72
2022-09-09T04:37:32.496Z,99047.03
2022-09-09T04:40:22.803Z,99052.06
2022-09-09T04:43:14.351Z,99051.59
2022-09-09T04:46:03.646Z,99051.88
2022-09-09T04:48:52.132Z,99060.06
2022-09-09T04:51:40.230Z,99067.44
2022-09-09T04:54:29.423Z,99073.50
2022-09-09T04:57:18.915Z,99069.81
2022-09-09T05:00:10.468Z,99079.53
2022-09-09T05:03:00.145Z,99082.19
2022-09-09T05:05:48.239Z,99080.34
2022-09-09T05:08:36.557Z,99090.59
2022-09-09T05:11:27.889Z,99087.66
2022-09-09T05:14:20.350Z,99093.72
2022-09-09T05:17:07.766Z,99092.66
2022-09-09T05:19:57.936Z,99093.00
2022-09-09T05:22:46.025Z,99092.56
2022-09-09T05:25:33.386Z,99092.84
2022-09-09T05:28:22.146Z,99093.94
2022-09-09T05:31:13.678Z,99103.47
2022-09-09T05:34:01.615Z,99091.66
2022-09-09T05:36:49.117Z,99100.03
2022-09-09T05:39:38.878Z,99104.75
2022-09-09T05:42:27.244Z,99106.00
2022-09-09T05:45:16.581Z,99113.91
2022-09-09T05:48:04.276Z,99109.16
2022-09-09T05:50:56.210Z,99111.00
2022-09-09T05:53:44.792Z,99111.50
2022-09-09T05:56:33.477Z,99109.66
2022-09-09T05:59:21.721Z,99112.59
2022-09-09T06:02:13.653Z,99115.00
2022-09-09T06:05:00.930Z,99126.31
2022-09-09T06:07:49.380Z,99116.06
2022-09-09T06:10:37.323Z,99122.59
2022-09-09T06:13:25.099Z,99122.84
2022-09-09T06:16:13.852Z,99113.88
2022-09-09T06:19:05.504Z,99112.78
2022-09-09T06:21:53.328Z,99127.22
2022-09-09T06:24:40.736Z,99118.00
2022-09-09T06:27:29.798Z,99120.63
2022-09-09T06:30:18.308Z,99123.75
2022-09-09T06:33:06.466Z,99119.00
2022-09-09T06:35:58.096Z,99120.50
2022-09-09T06:38:46.906Z,99118.34
2022-09-09T06:41:35.841Z,99123.63
2022-09-09T06:44:24.372Z,99114.66
2022-09-09T06:47:12.041Z,99117.53
2022-09-09T06:50:01.113Z,99120.06
2022-09-09T06:52:50.919Z,99117.38
2022-09-09T06:55:41.327Z,99116.44
2022-09-09T06:58:29.784Z,99112.59
2022-09-09T07:01:21.137Z,99123.47
2022-09-09T07:04:09.994Z,99118.53
2022-09-09T07:06:57.961Z,99132.03
2022-09-09T07:09:48.095Z,99120.94
2022-09-09T07:12:35.713Z,99120.94
2022-09-09T07:15:23.917Z,99126.44
2022-09-09T07:18:12.082Z,99132.88
2022-09-09T07:20:59.971Z,99128.59
2022-09-09T07:23:47.988Z,99125.38
2022-09-09T07:26:37.136Z,99133.50
2022-09-09T07:29:24.268Z,99119.22
2022-09-09T07:32:12.410Z,99121.38
2022-09-09T07:35:00.958Z,99126.56
2022-09-09T07:37:51.098Z,99135.09
2022-09-09T07:40:40.711Z,99137.63
2022-09-09T07:43:30.119Z,99136.47
2022-09-09T07:46:21.088Z,99133.72
2022-09-09T07:49:09.515Z,99127.56
2022-09-09T07:51:57.510Z,99134.31
2022-09-09T07:54:46.651Z,99133.53
2022-09-09T07:57:34.875Z,99135.47
2022-09-09T08:00:24.963Z,99136.66
2022-09-09T08:03:16.709Z,99144.97
2022-09-09T08:06:05.524Z,99136.66
2022-09-09T08:08:53.944Z,99136.84
2022-09-09T08:11:43.135Z,99139.69
2022-09-09T08:14:30.887Z,99143.50
2022-09-09T08:17:20.575Z,99148.03
2022-09-09T08:20:08.933Z,99139.72
2022-09-09T08:22:57.907Z,99148.63
2022-09-09T08:25:46.569Z,99153.81
2022-09-09T08:28:35.190Z,99152.91
2022-09-09T08:34:21.537Z,99151.34
2022-09-09T08:37:10.990Z,99168.88
2022-09-09T08:40:01.275Z,99159.97
2022-09-09T08:42:55.096Z,99161.16
2022-09-09T08:45:52.916Z,99167.56
2022-09-09T08:48:55.138Z,99149.94
2022-09-09T08:51:44.441Z,99158.16
2022-09-09T08:54:51.585Z,99160.50
2022-09-09T08:57:41.261Z,99159.94
2022-09-09T09:00:37.510Z,99166.19
2022-09-09T09:03:35.507Z,99170.91
2022-09-09T09:06:42.229Z,99172.38
2022-09-09T09:09:44.081Z,99172.91
2022-09-09T09:12:38.118Z,99172.38
2022-09-09T09:15:32.084Z,99166.81
2022-09-09T09:18:20.769Z,99171.53
2022-09-09T09:21:15.643Z,99172.03
2022-09-09T09:24:09.167Z,99168.00
2022-09-09T09:26:58.645Z,99161.84
2022-09-09T09:30:18.080Z,99155.34
2022-09-09T09:33:01.626Z,99153.72
2022-09-09T09:35:52.168Z,99163.88
2022-09-09T09:41:50.646Z,99152.41
2022-09-09T09:44:40.340Z,99150.63
2022-09-09T09:47:33.702Z,99149.19
2022-09-09T09:50:34.024Z,99137.88
2022-09-09T09:53:28.023Z,99146.50
2022-09-09T09:56:17.396Z,99139.06
2022-09-09T09:59:13.141Z,99148.53
2022-09-09T10:02:25.772Z,99154.63
2022-09-09T10:05:26.914Z,99152.88
2022-09-09T10:08:20.750Z,99144.25
2022-09-09T10:11:29.508Z,99157.56
2022-09-09T10:14:23.520Z,99162.50
2022-09-09T10:17:23.075Z,99169.72
2022-09-09T10:20:29.604Z,99181.66
2022-09-09T10:23:34.684Z,99189.97
2022-09-09T10:26:40.247Z,99177.59
2022-09-09T10:29:44.979Z,99174.63
2022-09-09T10:32:47.545Z,99164.28
2022-09-09T10:35:41.781Z,99163.38
2022-09-09T10:38:43.409Z,99155.88
2022-09-09T10:41:49.639Z,99159.59
2022-09-09T10:44:59.780Z,99159.00
2022-09-09T10:48:13.826Z,99158.59
2022-09-09T10:51:25.528Z,99150.00
2022-09-09T10:54:36.011Z,99148.63
2022-09-09T10:57:33.162Z,99137.84
2022-09-09T11:00:24.194Z,99142.91
2022-09-09T11:03:22.493Z,99135.28
2022-09-09T11:06:17.251Z,99132.22
2022-09-09T11:09:06.228Z,99132.31
2022-09-09T11:11:58.254Z,99122.88
2022-09-09T11:14:49.688Z,99117.19
2022-09-09T11:17:44.879Z,99116.44
2022-09-09T11:20:34.211Z,99123.97
2022-09-09T11:23:28.828Z,99106.13
2022-09-09T11:26:31.241Z,99103.84
2022-09-09T11:30:09.808Z,99104.78
2022-09-09T11:33:46.601Z,99087.44
2022-09-09T11:36:58.394Z,99108.66
2022-09-09T11:40:21.981Z,99091.28
2022-09-09T11:43:14.701Z,99094.72
2022-09-09T11:46:04.873Z,99097.41
2022-09-09T11:49:04.154Z,99086.41
2022-09-09T11:51:53.223Z,99097.94
2022-09-09T11:54:50.130Z,99102.63
2022-09-09T11:57:39.000Z,99113.88
2022-09-09T12:00:46.633Z,99107.47
2022-09-09T12:03:47.088Z,99098.47
2022-09-09T12:06:44.255Z,99093.00
2022-09-09T12:09:49.517Z,99107.22
2022-09-09T12:12:43.158Z,99107.22
2022-09-09T12:15:31.911Z,99106.25
2022-09-09T12:18:26.267Z,99105.91
2022-09-09T12:21:27.670Z,99104.78
2022-09-09T12:24:23.179Z,99102.44
2022-09-09T12:27:21.878Z,99118.47
2022-09-09T12:30:13.455Z,99127.63
2022-09-09T12:33:11.098Z,99126.53
2022-09-09T12:36:00.544Z,99112.03
2022-09-09T12:38:48.871Z,99112.19
2022-09-09T12:41:36.365Z,99120.44
2022-09-09T12:44:26.906Z,99136.31
2022-09-09T12:47:16.075Z,99157.28
2022-09-09T12:50:04.166Z,99172.16
2022-09-09T12:52:54.937Z,99188.38
2022-09-09T12:55:53.101Z,99187.16
2022-09-09T12:58:41.299Z,99175.72
2022-09-09T13:01:33.284Z,99164.91
2022-09-09T13:04:24.023Z,99157.19
2022-09-09T13:07:13.203Z,99149.84
2022-09-09T13:10:00.769Z,99142.50
2022-09-09T13:12:48.929Z,99134.69
2022-09-09T13:15:36.685Z,99138.41
2022-09-09T13:18:29.391Z,99136.06
2022-09-09T13:21:16.888Z,99134.69
2022-09-09T13:24:05.322Z,99129.19
2022-09-09T13:26:58.610Z,99128.53
2022-09-09T13:29:56.614Z,99127.56
2022-09-09T13:32:44.432Z,99130.78
2022-09-09T13:35:34.168Z,99131.56
2022-09-09T13:38:27.074Z,99130.78
2022-09-09T13:41:24.605Z,99141.94
2022-09-09T13:44:24.291Z,99141.75
2022-09-09T13:47:23.690Z,99168.28
2022-09-09T13:50:26.581Z,99166.22
2022-09-09T13:53:15.151Z,99154.97
2022-09-09T13:56:03.398Z,99150.28
2022-09-09T13:58:50.869Z,99164.09
2022-09-09T14:01:38.600Z,99161.56
2022-09-09T14:04:26.003Z,99155.28
2022-09-09T14:07:16.711Z,99158.81
2022-09-09T14:10:06.459Z,99152.53
2022-09-09T14:12:53.892Z,99140.91
2022-09-09T14:15:41.226Z,99148.25
2022-09-09T14:18:28.517Z,99122.31
2022-09-09T14:21:16.626Z,99122.81
2022-09-09T14:24:04.687Z,99127.50
2022-09-09T14:26:53.745Z,99115.28
2022-09-09T14:29:41.028Z,99110.00
2022-09-09T14:32:29.056Z,99103.63
2022-09-09T14:35:18.284Z,99102.25
2022-09-09T14:38:06.485Z,99097.47
2022-09-09T14:40:53.721Z,99103.25
2022-09-09T14:43:42.469Z,99102.63
2022-09-09T14:46:30.628Z,99103.41
2022-09-09T14:49:18.064Z,99093.63
2022-09-09T14:52:07.225Z,99096.75
2022-09-09T14:54:54.823Z,99088.81
2022-09-09T14:57:42.281Z,99097.25
2022-09-09T15:00:31.649Z,99090.13
2022-09-09T15:03:19.072Z,99096.16
2022-09-09T15:06:11.415Z,99092.44
2022-09-09T15:08:59.877Z,99103.78
2022-09-09T15:11:47.385Z,99107.97
2022-09-09T15:14:35.124Z,99104.00
2022-09-09T15:17:28.190Z,99102.09
2022-09-09T15:20:17.664Z,99101.06
2022-09-09T15:23:07.005Z,99092.03
2022-09-09T15:25:56.097Z,99084.41
2022-09-09T15:28:45.525Z,99086.56
2022-09-09T15:31:34.200Z,99092.94
2022-09-09T15:34:24.042Z,99094.78
2022-09-09T15:37:14.024Z,99092.44
2022-09-09T15:40:02.197Z,99104.88
2022-09-09T15:42:50.137Z,99113.38
2022-09-09T15:45:38.052Z,99137.38
2022-09-09T15:48:34.374Z,99128.47
2022-09-09T15:51:41.712Z,99128.25
2022-09-09T15:54:30.040Z,99124.34
2022-09-09T15:57:17.525Z,99134.19
2022-09-09T16:00:07.993Z,99138.03
2022-09-09T16:02:55.313Z,99157.34
2022-09-09T16:05:42.709Z,99167.00
2022-09-09T16:08:35.482Z,99176.56
2022-09-09T16:11:25.695Z,99176.44
2022-09-09T16:14:13.150Z,99166.28
2022-09-09T16:17:00.338Z,99175.81
2022-09-09T16:19:47.847Z,99161.03
2022-09-09T16:22:35.350Z,99159.19
2022-09-09T16:25:24.211Z,99158.94
2022-09-09T16:28:11.798Z,99162.56
2022-09-09T16:30:59.995Z,99146.44
2022-09-09T16:33:48.634Z,99152.50
2022-09-09T16:36:39.882Z,99140.88
2022-09-09T16:39:27.270Z,99140.88
2022-09-09T16:42:18.038Z,99146.16
2022-09-09T16:45:07.817Z,99151.44
2022-09-09T16:47:55.584Z,99153.00
2022-09-09T16:50:43.260Z,99154.56
2022-09-09T16:53:30.942Z,99158.78
2022-09-09T16:56:21.360Z,99166.69
2022-09-09T16:59:13.107Z,99158.50
2022-09-09T17:02:01.530Z,99153.50
2022-09-09T17:04:49.343Z,99145.59
2022-09-09T17:07:37.068Z,99148.53
2022-09-09T17:10:24.557Z,99143.25
2022-09-09T17:13:12.563Z,99146.94
2022-09-09T17:16:06.061Z,99136.66
2022-09-09T17:18:55.161Z,99140.38
2022-09-09T17:22:05.904Z,99145.19
2022-09-09T17:24:51.020Z,99147.59
2022-09-09T17:27:38.562Z,99152.09
2022-09-09T17:30:25.914Z,99149.44
2022-09-09T17:33:14.822Z,99146.88
2022-09-09T17:36:14.389Z,99152.72
2022-09-09T17:39:03.413Z,99147.25
2022-09-09T17:41:50.832Z,99150.66
2022-09-09T17:44:39.897Z,99148.81
2022-09-09T17:47:27.676Z,99150.66
2022-09-09T17:50:16.822Z,99149.56
2022-09-09T17:53:04.300Z,99151.16
2022-09-09T17:55:53.098Z,99141.38
2022-09-09T17:58:41.661Z,99139.81
2022-09-09T18:01:31.955Z,99146.47
2022-09-09T18:04:20.740Z,99159.66
2022-09-09T18:07:09.803Z,99160.72
2022-09-09T18:09:57.085Z,99158.09
2022-09-09T18:12:44.611Z,99164.41
2022-09-09T18:15:48.659Z,99191.84
2022-09-09T18:18:37.710Z,99189.78
2022-09-09T18:21:27.666Z,99207.53
2022-09-09T18:24:19.380Z,99211.19
2022-09-09T18:27:06.909Z,99201.56
2022-09-09T18:29:54.247Z,99212.16
2022-09-09T18:32:41.426Z,99223.56
2022-09-09T18:35:28.931Z,99232.59
2022-09-09T18:38:17.661Z,99239.22
2022-09-09T18:41:16.960Z,99252.16
2022-09-09T18:44:08.309Z,99251.66
2022-09-09T18:46:55.956Z,99253.50
2022-09-09T18:49:43.622Z,99265.09
2022-09-09T18:52:30.901Z,99275.13
2022-09-09T18:55:18.559Z,99275.69
2022-09-09T18:58:07.209Z,99281.22
2022-09-09T19:00:54.862Z,99286.50
2022-09-09T19:03:43.191Z,99277.03
2022-09-09T19:06:33.125Z,99270.22
2022-09-09T19:09:20.766Z,99274.44
2022-09-09T19:12:09.066Z,99281.69
2022-09-09T19:14:58.204Z,99302.59
2022-09-09T19:17:45.523Z,99282.63
2022-09-09T19:20:32.828Z,99279.47
2022-09-09T19:23:20.255Z,99269.22
2022-09-09T19:26:08.956Z,99274.22
2022-09-09T19:28:58.586Z,99271.09
2022-09-09T19:32:06.577Z,99279.75
2022-09-09T19:34:55.972Z,99258.41
2022-09-09T19:37:43.422Z,99243.41
2022-09-09T19:40:31.809Z,99276.81
2022-09-09T19:43:19.345Z,99267.84
2022-09-09T19:46:11.585Z,99277.28
2022-09-09T19:49:01.853Z,99278.38
2022-09-09T19:51:48.970Z,99282.88
2022-09-09T19:54:36.410Z,99257.31
2022-09-09T19:57:23.994Z,99258.88
2022-09-09T20:00:13.023Z,99266.72
2022-09-09T20:03:18.164Z,99265.94
2022-09-09T20:06:09.794Z,99274.63
2022-09-09T20:08:58.313Z,99281.97
2022-09-09T20:11:48.111Z,99269.88
2022-09-09T20:14:39.353Z,99290.94
2022-09-09T20:17:27.509Z,99293.63
2022-09-09T20:20:15.088Z,99276.81
2022-09-09T20:23:03.791Z,99271.59
2022-09-09T20:25:51.344Z,99289.81
2022-09-09T20:28:42.314Z,99282.69
2022-09-09T20:31:31.407Z,99290.59
2022-09-09T20:34:22.954Z,99295.88
2022-09-09T20:37:10.666Z,99289.00
2022-09-09T20:40:00.246Z,99285.34
2022-09-09T20:42:47.817Z,99287.97
2022-09-09T20:45:38.820Z,99295.06
2022-09-09T20:48:26.579Z,99302.16
2022-09-09T20:51:16.297Z,99289.56
2022-09-09T20:54:06.495Z,99288.78
2022-09-09T20:56:56.195Z,99286.66
2022-09-09T20:59:48.090Z,99283.75
2022-09-09T21:02:35.673Z,99276.91
2022-09-09T21:05:24.226Z,99283.75
2022-09-09T21:08:12.125Z,99287.44
2022-09-09T21:10:59.844Z,99278.25
2022-09-09T21:13:48.636Z,99281.16
2022-09-09T21:16:36.276Z,99286.44
2022-09-09T21:19:24.308Z,99287.47
2022-09-09T21:22:14.195Z,99280.66
2022-09-09T21:25:01.768Z,99281.72
2022-09-09T21:27:49.078Z,99271.97
2022-09-09T21:30:43.949Z,99264.59
2022-09-09T21:33:31.761Z,99255.88
2022-09-09T21:36:19.291Z,99264.59
2022-09-09T21:39:06.533Z,99262.22
2022-09-09T21:41:54.659Z,99260.66
2022-09-09T21:44:42.094Z,99252.75
2022-09-09T21:47:30.697Z,99254.41
2022-09-09T21:50:24.501Z,99250.97
2022-09-09T21:53:20.324Z,99254.41
2022-09-09T21:56:10.906Z,99255.97
2022-09-09T21:59:03.716Z,99267.00
2022-09-09T22:01:51.243Z,99256.47
2022-09-09T22:04:40.366Z,99255.69
2022-09-09T22:07:27.836Z,99258.31
2022-09-09T22:10:15.303Z,99251.22
2022-09-09T22:13:03.057Z,99249.34
2022-09-09T22:15:51.058Z,99245.44
2022-09-09T22:18:39.305Z,99249.34
2022-09-09T22:21:31.192Z,99249.63
2022-09-09T22:24:19.294Z,99241.72
2022-09-09T22:27:07.219Z,99246.97
2022-09-09T22:29:54.794Z,99244.06
2022-09-09T22:32:41.853Z,99252.50
2022-09-09T22:35:30.058Z,99243.53
2022-09-09T22:38:19.166Z,99245.16
2022-09-09T22:41:07.621Z,99259.38
2022-09-09T22:43:56.096Z,99254.41
2022-09-09T22:46:43.904Z,99258.88
2022-09-09T22:49:31.738Z,99258.06
2022-09-09T22:52:19.323Z,99261.78
2022-09-09T22:55:09.962Z,99255.44
2022-09-09T22:57:57.396Z,99255.16
2022-09-09T23:00:45.249Z,99250.16
2022-09-09T23:03:33.202Z,99247.53
2022-09-09T23:06:24.012Z,99248.09
2022-09-09T23:09:13.791Z,99253.34
2022-09-09T23:12:03.780Z,99250.72
2022-09-09T23:14:52.051Z,99247.31
2022-09-09T23:17:40.997Z,99253.66
2022-09-09T23:20:29.518Z,99243.41
2022-09-09T23:23:16.871Z,99253.94
2022-09-09T23:26:05.583Z,99259.19
2022-09-09T23:28:55.370Z,99252.34
2022-09-09T23:31:45.342Z,99252.34
2022-09-09T23:34:33.046Z,99259.22
2022-09-09T23:37:20.527Z,99259.03
2022-09-09T23:40:09.368Z,99255.03
2022-09-09T23:42:57.041Z,99255.59
2022-09-09T23:45:47.177Z,99251.38
2022-09-09T23:48:35.927Z,99249.78
2022-09-09T23:51:25.235Z,99256.63
2022-09-09T23:54:12.672Z,99246.38
2022-09-09T23:57:00.239Z,99252.41
2022-09-09T23:59:47.620Z,99248.22
